Time;durP1;ratioP1;P1;durP2;ratioP2;P2;SDS_P1;SDS_P2;PMS_P1;PMS_P2;Temp;Humidity;BMP_temperature;BMP_pressure;BME280_temperature;BME280_humidity;BME280_pressure;Samples;Min_cycle;Max_cycle;Signal;HPM_P1;HPM_P2
2023/02/11 00:01:31;;;;;;;25.15;9.20;;;;;;;-4.39;65.02;103110.75;1859770;77;21981;-47
2023/02/11 00:04:00;;;;;;;42.20;15.75;;;;;;;-4.34;64.93;103111.89;1859734;77;21505;-44
2023/02/11 00:06:31;;;;;;;48.13;17.57;;;;;;;-4.19;64.82;103105.89;1859727;77;21110;-43
2023/02/11 00:09:00;;;;;;;35.65;15.25;;;;;;;-4.19;64.82;103105.89;1859709;77;21184;-42
2023/02/11 00:11:30;;;;;;;42.48;14.38;;;;;;;-4.07;64.54;103109.20;1859727;77;21551;-43
2023/02/11 00:14:01;;;;;;;43.20;16.90;;;;;;;-4.07;64.54;103109.20;1859668;76;21082;-42
2023/02/11 00:16:31;;;;;;;64.15;20.12;;;;;;;-4.03;64.54;103114.13;1859739;77;21144;-43
2023/02/11 00:19:00;;;;;;;45.90;15.28;;;;;;;-4.11;64.63;103108.13;1859721;77;21572;-42
2023/02/11 00:21:30;;;;;;;31.37;13.70;;;;;;;-4.11;64.63;103108.13;1859842;77;21066;-46
2023/02/11 00:24:01;;;;;;;49.55;15.23;;;;;;;-4.10;64.76;103119.30;1859837;77;21054;-47
2023/02/11 00:26:35;;;;;;;43.45;14.10;;;;;;;-4.15;64.91;103127.14;1859814;77;21663;-46
2023/02/11 00:29:04;;;;;;;44.73;16.12;;;;;;;-4.25;65.12;103109.40;1859836;77;21059;-47
2023/02/11 00:31:34;;;;;;;32.10;13.75;;;;;;;-4.05;64.87;103123.45;1859832;77;21510;-47
2023/02/11 00:34:03;;;;;;;39.35;14.98;;;;;;;-4.05;64.87;103123.45;1859768;77;21088;-43
2023/02/11 00:36:32;;;;;;;33.33;11.60;;;;;;;-3.91;64.69;103122.17;1859836;77;21509;-43
2023/02/11 00:39:00;;;;;;;41.15;17.00;;;;;;;-3.91;64.69;103122.17;1859875;77;21067;-42
2023/02/11 00:41:30;;;;;;;41.60;15.83;;;;;;;-3.86;64.64;103128.86;1859795;77;21192;-43
2023/02/11 00:44:00;;;;;;;44.55;15.05;;;;;;;-3.82;64.57;103132.09;1859966;77;21102;-43
2023/02/11 00:46:30;;;;;;;45.48;16.12;;;;;;;-3.76;64.65;103123.47;1859839;76;21148;-43
2023/02/11 00:48:59;;;;;;;56.83;19.20;;;;;;;-3.76;64.65;103123.47;1859838;76;21054;-48
2023/02/11 00:51:29;;;;;;;52.40;18.02;;;;;;;-3.73;64.47;103118.88;1852171;77;21127;-47
2023/02/11 00:53:57;;;;;;;58.95;19.35;;;;;;;-3.73;64.65;103108.58;1841664;78;21534;-48
2023/02/11 00:56:26;;;;;;;48.85;18.82;;;;;;;-3.73;64.65;103108.58;1841694;78;21004;-45
2023/02/11 00:58:57;;;;;;;44.65;18.30;;;;;;;-3.71;64.91;103117.28;1841710;77;21069;-47
2023/02/11 01:01:25;;;;;;;56.30;20.32;;;;;;;-3.69;64.87;103113.10;1841705;78;21024;-44
2023/02/11 01:03:55;;;;;;;52.62;18.95;;;;;;;-3.66;64.99;103105.56;1841551;78;21470;-47
2023/02/11 01:06:25;;;;;;;56.05;16.77;;;;;;;-3.63;65.06;103108.33;1841787;77;21079;-44
2023/02/11 01:08:54;;;;;;;58.40;17.60;;;;;;;-3.64;65.31;103106.53;1841712;78;21039;-49
2023/02/11 01:11:22;;;;;;;52.73;20.95;;;;;;;-3.67;65.52;103107.67;1841879;78;21004;-46
2023/02/11 01:13:51;;;;;;;54.20;18.87;;;;;;;-3.69;66.15;103100.23;1841659;78;21043;-46
2023/02/11 01:16:21;;;;;;;40.08;15.18;;;;;;;-3.69;66.15;103100.23;1841695;76;21133;-44
2023/02/11 01:18:50;;;;;;;37.17;15.90;;;;;;;-3.73;66.15;103112.03;1841570;77;21167;-43
2023/02/11 01:21:19;;;;;;;46.55;18.65;;;;;;;-3.73;66.15;103112.03;1841571;78;21450;-43
2023/02/11 01:23:48;;;;;;;42.13;14.98;;;;;;;-3.74;66.07;103095.23;1841596;76;21032;-45
2023/02/11 01:26:17;;;;;;;47.90;16.87;;;;;;;-3.68;66.13;103102.02;1841593;78;21007;-46
2023/02/11 01:28:46;;;;;;;48.23;16.25;;;;;;;-3.66;66.14;103105.97;1841512;77;21498;-44
2023/02/11 01:31:15;;;;;;;34.88;11.57;;;;;;;-3.76;66.02;103106.73;1841568;77;21040;-44
2023/02/11 01:33:43;;;;;;;48.60;16.55;;;;;;;-3.67;66.07;103111.53;1841787;78;21055;-50
2023/02/11 01:36:13;;;;;;;41.42;13.95;;;;;;;-3.63;65.70;103100.60;1841646;78;21012;-52
2023/02/11 01:38:43;;;;;;;49.20;17.32;;;;;;;-3.58;65.44;103104.70;1841585;78;21133;-51
2023/02/11 01:41:14;;;;;;;49.83;18.62;;;;;;;-3.56;65.36;103098.86;1841569;78;21047;-51
2023/02/11 01:43:46;;;;;;;49.38;15.05;;;;;;;-3.57;65.43;103102.23;1841758;78;21048;-51
2023/02/11 01:46:35;;;;;;;47.88;15.75;;;;;;;-3.56;65.42;103102.73;1841578;78;21118;-54
2023/02/11 01:49:12;;;;;;;37.45;16.12;;;;;;;-3.61;65.34;103092.56;1841574;78;21447;-53
2023/02/11 01:51:44;;;;;;;41.28;14.43;;;;;;;-3.55;65.35;103099.74;1841521;77;21087;-52
2023/02/11 01:57:22;;;;;;;45.43;16.25;;;;;;;-3.57;65.56;103100.94;1841698;77;21036;-51
2023/02/11 02:00:05;;;;;;;51.63;17.80;;;;;;;-3.57;65.38;103100.94;1841626;77;21099;-54
2023/02/11 02:02:54;;;;;;;;;;;;;;;-3.52;65.76;103103.79;1842898;77;21173;-53
2023/02/11 02:05:37;;;;;;;42.90;16.10;;;;;;;-3.44;65.58;103110.66;1841658;78;20117;-50
2023/02/11 02:08:08;;;;;;;38.45;14.18;;;;;;;-3.41;65.31;103108.23;1841777;77;21113;-53
2023/02/11 02:10:39;;;;;;;46.70;16.75;;;;;;;-3.40;65.18;103102.30;1841911;77;21023;-51
2023/02/11 02:13:08;;;;;;;44.40;16.73;;;;;;;-3.42;65.01;103100.91;1841897;78;21043;-53
2023/02/11 02:15:38;;;;;;;39.88;15.13;;;;;;;-3.41;65.04;103106.95;1841864;78;21149;-52
2023/02/11 02:18:43;;;;;;;43.35;16.55;;;;;;;-3.40;65.00;103113.89;1841771;78;21121;-51
2023/02/11 02:21:17;;;;;;;43.83;16.85;;;;;;;-3.44;64.91;103101.23;1841578;78;21118;-48
2023/02/11 02:23:58;;;;;;;34.03;14.58;;;;;;;-3.39;64.79;103110.52;1839361;77;21129;-48
2023/02/11 02:26:52;;;;;;;43.38;15.88;;;;;;;-3.38;64.66;103113.57;1841739;77;21129;-47
2023/02/11 02:29:24;;;;;;;;;;;;;;;-3.39;64.64;103110.11;1844336;78;21556;-45
2023/02/11 02:32:21;;;;;;;35.10;13.53;;;;;;;-3.38;64.76;103113.57;1840919;77;20121;-45
2023/02/11 02:35:09;;;;;;;40.65;15.72;;;;;;;-3.40;65.11;103110.02;1841731;78;21055;-48
2023/02/11 02:37:47;;;;;;;45.10;17.50;;;;;;;-3.41;64.78;103103.08;1841676;78;21528;-48
2023/02/11 02:40:21;;;;;;;42.62;15.75;;;;;;;-3.41;64.78;103103.08;1841778;77;21044;-48
2023/02/11 02:42:51;;;;;;;43.95;16.70;;;;;;;-3.37;64.95;103099.90;1841803;77;21981;-47
2023/02/11 02:45:20;;;;;;;35.28;14.90;;;;;;;-3.39;65.32;103091.20;1841790;78;21004;-49
2023/02/11 02:47:48;;;;;;;46.18;15.35;;;;;;;-3.39;65.32;103091.20;1841751;77;21149;-51
2023/02/11 02:50:20;;;;;;;44.93;16.80;;;;;;;-3.35;65.38;103099.17;1841648;78;21059;-45
2023/02/11 02:53:00;;;;;;;31.62;13.95;;;;;;;-3.35;65.38;103097.00;1845824;77;21050;-46
2023/02/11 02:55:44;;;;;;;42.55;16.42;;;;;;;-3.36;65.21;103097.80;1851060;77;21014;-51
2023/02/11 02:58:15;;;;;;;38.83;15.00;;;;;;;-3.32;65.07;103098.45;1851581;77;21018;-51
2023/02/11 03:00:50;;;;;;;39.80;16.52;;;;;;;-3.28;64.86;103092.69;1850739;77;21033;-51
2023/02/11 03:03:39;;;;;;;40.70;17.50;;;;;;;-3.36;64.79;103078.06;1851112;77;21545;-46
2023/02/11 03:06:30;;;;;;;38.02;14.95;;;;;;;-3.32;64.98;103081.70;1851096;77;21066;-48
2023/02/11 03:09:04;;;;;;;47.38;17.02;;;;;;;-3.29;64.88;103080.59;1850994;77;21010;-49
2023/02/11 03:11:36;;;;;;;47.35;17.37;;;;;;;-3.33;64.92;103078.66;1842553;77;21030;-51
2023/02/11 03:14:07;;;;;;;41.10;15.53;;;;;;;-3.35;64.92;103078.97;1851106;76;21148;-48
2023/02/11 03:16:38;;;;;;;46.85;16.82;;;;;;;-3.41;65.11;103071.80;1851110;77;21091;-45
2023/02/11 03:19:12;;;;;;;43.80;16.55;;;;;;;-3.40;65.24;103066.23;1851195;77;21120;-48
2023/02/11 03:21:44;;;;;;;46.40;18.35;;;;;;;-3.46;65.26;103063.32;1851037;77;21160;-49
2023/02/11 03:24:18;;;;;;;44.50;16.00;;;;;;;-3.47;65.05;103060.25;1851106;77;21062;-47
2023/02/11 03:26:57;;;;;;;76.05;23.95;;;;;;;-3.42;65.06;103066.14;1850461;77;21098;-49
2023/02/11 03:29:48;;;;;;;69.00;21.90;;;;;;;-3.40;65.13;103066.23;1851108;77;21128;-48
2023/02/11 03:32:25;;;;;;;45.17;17.62;;;;;;;-3.38;65.17;103067.20;1851091;77;21144;-49
2023/02/11 03:35:12;;;;;;;165.68;45.80;;;;;;;-3.35;65.10;103064.39;1847012;77;21079;-50
2023/02/11 03:37:47;;;;;;;109.07;30.17;;;;;;;-3.33;65.06;103078.66;1851092;77;21591;-48
2023/02/11 03:40:18;;;;;;;64.17;22.20;;;;;;;-3.33;65.06;103078.66;1850645;77;21489;-48
2023/02/11 03:42:55;;;;;;;44.10;16.97;;;;;;;-3.35;65.27;103081.14;1851097;77;21544;-49
2023/02/11 03:45:25;;;;;;;59.15;24.15;;;;;;;-3.31;65.04;103083.48;1850967;77;21070;-46
2023/02/11 03:48:03;;;;;;;70.97;24.90;;;;;;;-3.31;65.07;103080.50;1851225;77;21136;-49
2023/02/11 03:50:35;;;;;;;96.57;29.18;;;;;;;-3.33;65.22;103082.52;1851046;77;21553;-45
2023/02/11 03:53:04;;;;;;;103.20;31.82;;;;;;;-3.30;65.25;103082.28;1853305;76;21075;-46
2023/02/11 03:55:36;;;;;;;80.57;29.00;;;;;;;-3.26;65.17;103078.57;1859657;77;21595;-49
2023/02/11 03:58:05;;;;;;;62.50;20.57;;;;;;;-3.26;65.06;103073.04;1859674;77;21520;-46
2023/02/11 04:00:36;;;;;;;61.77;19.23;;;;;;;-3.26;65.18;103079.86;1859746;77;21043;-48
2023/02/11 04:03:05;;;;;;;64.47;22.10;;;;;;;-3.30;65.34;103076.26;1858221;77;21113;-45
2023/02/11 04:05:34;;;;;;;52.05;18.42;;;;;;;-3.33;65.47;103075.66;1859681;76;21054;-45
2023/02/11 04:08:03;;;;;;;48.68;19.25;;;;;;;-3.36;65.33;103078.47;1859704;76;21025;-45
2023/02/11 04:10:32;;;;;;;56.98;19.10;;;;;;;-3.36;65.40;103074.61;1859734;77;21022;-48
2023/02/11 04:13:00;;;;;;;48.68;18.62;;;;;;;-3.34;65.36;103079.06;1859747;77;21128;-46
2023/02/11 04:15:29;;;;;;;43.02;17.73;;;;;;;-3.34;65.23;103073.50;1859760;77;21092;-49
2023/02/11 04:17:58;;;;;;;49.98;18.23;;;;;;;-3.33;65.21;103073.50;1859684;77;21588;-51
2023/02/11 04:20:26;;;;;;;33.70;12.15;;;;;;;-3.33;65.38;103077.36;1859706;77;21027;-52
2023/02/11 04:22:55;;;;;;;42.88;16.30;;;;;;;-3.32;65.50;103072.68;1859718;77;21046;-51
2023/02/11 04:25:25;;;;;;;49.20;17.30;;;;;;;-3.29;65.42;103084.45;1859833;77;21060;-51
2023/02/11 04:27:53;;;;;;;50.60;19.65;;;;;;;-3.28;65.27;103077.23;1859726;77;21125;-53
2023/02/11 04:30:22;;;;;;;43.45;17.30;;;;;;;-3.29;65.17;103076.72;1859763;76;21082;-52
2023/02/11 04:32:50;;;;;;;48.20;18.27;;;;;;;-3.35;65.18;103068.67;1859728;77;21007;-52
2023/02/11 04:35:19;;;;;;;36.13;15.72;;;;;;;-3.31;65.10;103080.50;1859713;77;21039;-52
2023/02/11 04:37:48;;;;;;;43.00;16.35;;;;;;;-3.32;64.93;103072.68;1859667;77;21051;-50
2023/02/11 04:40:17;;;;;;;48.87;17.15;;;;;;;-3.22;65.21;103088.27;1859880;76;21052;-45
2023/02/11 04:42:46;;;;;;;52.50;17.20;;;;;;;-3.17;65.20;103087.72;1859610;77;21450;-45
2023/02/11 04:45:14;;;;;;;39.38;16.82;;;;;;;-3.12;65.21;103081.13;1859717;77;21039;-48
2023/02/11 04:47:43;;;;;;;41.90;15.32;;;;;;;-3.09;65.13;103081.69;1859831;77;21072;-45
2023/02/11 04:50:12;;;;;;;46.13;18.87;;;;;;;-3.14;65.10;103086.58;1859747;76;21152;-47
2023/02/11 04:52:41;;;;;;;43.25;14.38;;;;;;;-3.14;65.11;103086.58;1871996;76;21036;-47
2023/02/11 04:55:09;;;;;;;44.05;17.60;;;;;;;-3.26;65.23;103065.69;1844641;76;21034;-44
2023/02/11 04:57:38;;;;;;;55.10;19.23;;;;;;;-3.26;65.38;103078.57;1859545;77;21016;-45
2023/02/11 05:00:08;;;;;;;53.28;19.23;;;;;;;-3.43;65.87;103081.50;1872712;77;21032;-46
2023/02/11 05:02:37;;;;;;;42.15;16.00;;;;;;;-3.45;66.02;103076.26;1872768;77;21040;-48
2023/02/11 05:05:06;;;;;;;38.95;15.00;;;;;;;-3.40;65.95;103078.70;1872681;77;21008;-48
2023/02/11 05:07:35;;;;;;;49.70;18.48;;;;;;;-3.32;65.79;103081.70;1872767;77;21458;-46
2023/02/11 05:10:04;;;;;;;44.33;14.87;;;;;;;-3.25;65.68;103072.62;1851434;77;21175;-47
2023/02/11 05:12:32;;;;;;;48.70;16.40;;;;;;;-3.17;65.56;103074.83;1841545;78;21531;-49
2023/02/11 05:15:01;;;;;;;44.23;16.62;;;;;;;-3.09;65.48;103080.41;1858084;77;21020;-47
2023/02/11 05:17:30;;;;;;;39.25;14.28;;;;;;;-3.14;65.57;103081.42;1841549;78;21032;-47
2023/02/11 05:19:59;;;;;;;37.55;14.23;;;;;;;-3.14;65.64;103082.70;1852924;77;21075;-43
2023/02/11 05:22:28;;;;;;;35.25;16.62;;;;;;;-3.16;65.61;103074.02;1872561;77;21118;-43
2023/02/11 05:24:57;;;;;;;43.38;15.68;;;;;;;-3.18;65.75;103078.20;1872611;77;21529;-43
2023/02/11 05:27:25;;;;;;;50.78;15.75;;;;;;;-3.13;65.70;103081.05;1872773;77;21044;-43
2023/02/11 05:29:54;;;;;;;33.63;14.38;;;;;;;-3.10;65.70;103073.45;1870562;76;21031;-43
2023/02/11 05:32:23;;;;;;;39.15;13.38;;;;;;;-3.04;65.72;103078.05;1858353;76;21166;-45
2023/02/11 05:34:51;;;;;;;43.42;16.10;;;;;;;-3.00;65.63;103074.87;1841540;78;21135;-44
2023/02/11 05:37:20;;;;;;;31.25;12.88;;;;;;;-3.02;65.65;103069.63;1841743;78;21013;-45
2023/02/11 05:39:49;;;;;;;51.18;14.10;;;;;;;-3.01;65.78;103061.06;1841651;78;21496;-43
2023/02/11 05:42:17;;;;;;;33.65;12.25;;;;;;;-3.01;65.88;103058.91;1841676;78;21120;-46
2023/02/11 05:44:46;;;;;;;48.28;15.03;;;;;;;-3.01;65.88;103052.45;1872332;77;21044;-49
2023/02/11 05:47:15;;;;;;;35.60;12.53;;;;;;;-3.01;65.97;103049.87;1872714;77;21122;-46
2023/02/11 05:49:43;;;;;;;38.63;14.78;;;;;;;-3.03;66.09;103048.50;1872754;77;21161;-43
2023/02/11 05:52:12;;;;;;;39.48;14.98;;;;;;;-2.96;66.12;103044.58;1870500;76;21136;-44
2023/02/11 05:54:41;;;;;;;51.08;17.32;;;;;;;-2.86;65.92;103042.95;1865223;75;21517;-43
2023/02/11 05:57:09;;;;;;;33.60;12.78;;;;;;;-2.74;65.82;103046.60;1849019;77;21042;-44
2023/02/11 05:59:39;;;;;;;41.37;15.38;;;;;;;-2.60;65.71;103039.56;1849060;77;21086;-44
2023/02/11 06:02:09;;;;;;;38.00;13.05;;;;;;;-2.46;65.62;103034.73;1849061;77;21532;-44
2023/02/11 06:04:38;;;;;;;28.92;14.50;;;;;;;-2.25;65.48;103030.17;1846472;77;21478;-47
2023/02/11 06:07:07;;;;;;;30.95;9.85;;;;;;;-2.03;65.25;103036.91;1846201;77;21563;-48
2023/02/11 06:09:36;;;;;;;38.05;12.65;;;;;;;-1.84;65.10;103040.40;1824624;77;21074;-48
2023/02/11 06:12:05;;;;;;;24.20;10.20;;;;;;;-1.71;64.94;103035.01;1810964;77;21489;-49
2023/02/11 06:14:34;;;;;;;28.80;11.35;;;;;;;-1.60;64.70;103040.70;1816230;77;21433;-48
2023/02/11 06:17:03;;;;;;;24.85;11.35;;;;;;;-1.58;64.66;103041.66;1849031;77;21151;-46
2023/02/11 06:19:32;;;;;;;29.55;10.75;;;;;;;-1.57;64.45;103042.12;1849130;77;21129;-45
2023/02/11 06:22:01;;;;;;;29.82;11.20;;;;;;;-1.51;64.15;103047.98;1846212;77;21026;-45
2023/02/11 06:24:29;;;;;;;27.05;10.88;;;;;;;-1.46;63.95;103051.67;1849034;77;21042;-49
2023/02/11 06:26:58;;;;;;;25.75;10.40;;;;;;;-1.32;63.89;103049.34;1848916;77;21047;-51
2023/02/11 06:29:27;;;;;;;30.97;12.95;;;;;;;-1.19;63.77;103046.51;1849020;77;21047;-47
2023/02/11 06:31:55;;;;;;;31.15;12.15;;;;;;;-1.12;63.37;103037.77;1833220;77;21108;-49
2023/02/11 06:34:24;;;;;;;28.62;11.20;;;;;;;-1.05;63.33;103032.03;1818387;79;21072;-50
2023/02/11 06:36:52;;;;;;;29.25;11.30;;;;;;;-1.05;62.94;103034.61;1833446;77;21155;-51
2023/02/11 06:39:21;;;;;;;35.05;13.28;;;;;;;-1.00;62.91;103041.80;1848983;77;21047;-54
2023/02/11 06:41:50;;;;;;;32.95;12.85;;;;;;;-0.88;63.00;103037.99;1846273;77;21119;-51
2023/02/11 06:44:18;;;;;;;33.98;12.45;;;;;;;-0.76;62.91;103044.98;1849024;77;21046;-53
2023/02/11 06:46:48;;;;;;;34.48;13.58;;;;;;;-0.66;62.84;103039.84;1849025;77;21042;-48
2023/02/11 06:49:16;;;;;;;28.23;11.57;;;;;;;-0.64;62.53;103041.66;1848999;77;21497;-50
2023/02/11 06:51:45;;;;;;;34.78;13.08;;;;;;;-0.69;62.35;103035.81;1832995;77;21056;-46
2023/02/11 06:54:14;;;;;;;27.52;10.63;;;;;;;-0.71;62.44;103037.03;1848673;77;21097;-45
2023/02/11 06:56:43;;;;;;;27.45;10.55;;;;;;;-0.63;62.30;103033.09;1883899;75;21474;-47
2023/02/11 06:59:14;;;;;;;27.55;10.75;;;;;;;-0.54;62.20;103040.35;1889516;76;21158;-45
2023/02/11 07:01:43;;;;;;;33.55;12.93;;;;;;;-0.45;62.16;103035.58;1872408;76;21107;-50
2023/02/11 07:04:13;;;;;;;31.12;11.95;;;;;;;-0.47;61.70;103036.34;1885835;76;21083;-49
2023/02/11 07:06:42;;;;;;;27.90;10.98;;;;;;;-0.51;61.80;103036.61;1868363;76;21574;-46
2023/02/11 07:09:11;;;;;;;33.25;12.75;;;;;;;-0.38;61.95;103039.74;1859751;77;21045;-43
2023/02/11 07:11:39;;;;;;;26.95;11.30;;;;;;;-0.25;61.95;103032.97;1860745;76;21016;-45
2023/02/11 07:14:08;;;;;;;26.02;11.78;;;;;;;-0.18;61.97;103033.70;1887149;76;21039;-47
2023/02/11 07:16:38;;;;;;;30.50;10.55;;;;;;;-0.13;61.79;103033.49;1891563;76;21116;-44
2023/02/11 07:19:06;;;;;;;32.98;12.00;;;;;;;-0.06;61.79;103029.02;1891300;76;21544;-44
2023/02/11 07:21:35;;;;;;;25.72;10.65;;;;;;;0.07;61.61;103030.41;1875109;76;21093;-46
2023/02/11 07:24:08;;;;;;;24.30;9.73;;;;;;;0.15;61.30;103030.33;1887658;76;21474;-45
2023/02/11 07:26:37;;;;;;;26.68;11.00;;;;;;;0.21;61.08;103025.80;1876637;76;21031;-45
2023/02/11 07:29:06;;;;;;;21.33;8.13;;;;;;;0.23;60.85;103027.16;1885960;76;21112;-45
2023/02/11 07:31:35;;;;;;;22.25;9.38;;;;;;;0.27;60.70;103028.62;1879280;76;21051;-44
2023/02/11 07:34:03;;;;;;;26.17;10.40;;;;;;;0.28;60.54;103025.23;1853496;77;21196;-44
2023/02/11 07:36:32;;;;;;;27.87;9.73;;;;;;;0.29;60.58;103018.33;1853658;77;21094;-44
2023/02/11 07:39:01;;;;;;;32.80;11.38;;;;;;;0.34;60.60;103017.69;1853570;77;21450;-45
2023/02/11 07:41:30;;;;;;;25.12;11.18;;;;;;;0.41;60.39;103016.63;1853447;77;21129;-46
2023/02/11 07:43:58;;;;;;;34.23;13.40;;;;;;;0.53;60.25;103022.30;1853381;77;21046;-45
2023/02/11 07:46:28;;;;;;;37.70;12.80;;;;;;;0.61;60.09;103020.00;1853450;77;21152;-46
2023/02/11 07:48:57;;;;;;;23.73;9.20;;;;;;;0.83;60.14;103016.52;1853577;77;21484;-47
2023/02/11 07:51:28;;;;;;;29.50;12.28;;;;;;;1.12;59.90;103015.88;1853400;77;21043;-47
2023/02/11 07:53:59;;;;;;;23.60;9.38;;;;;;;1.38;59.50;103015.06;1853419;77;21113;-46
2023/02/11 07:56:28;;;;;;;30.35;12.80;;;;;;;1.74;59.09;103012.86;1853364;77;21125;-46
2023/02/11 07:59:02;;;;;;;28.62;12.95;;;;;;;2.13;58.49;103002.89;1853365;77;21095;-45
2023/02/11 08:01:30;;;;;;;;;;;;;;;2.53;57.65;102999.37;1856210;77;21011;-48
2023/02/11 08:04:00;;;;;;;28.92;12.37;;;;;;;2.89;56.97;102998.69;1853408;77;20177;-44
2023/02/11 08:06:32;;;;;;;20.60;9.48;;;;;;;3.14;56.46;103004.61;1853512;77;21063;-44
2023/02/11 08:09:07;;;;;;;24.23;8.38;;;;;;;3.40;56.21;102997.08;1853407;77;21176;-46
2023/02/11 08:11:36;;;;;;;28.87;11.25;;;;;;;3.55;55.62;102993.13;1853421;77;21046;-45
2023/02/11 08:14:05;;;;;;;26.87;11.28;;;;;;;3.58;55.67;102999.30;1853433;77;21041;-45
2023/02/11 08:16:36;;;;;;;25.17;10.40;;;;;;;3.92;55.37;102996.67;1853551;77;21043;-45
2023/02/11 08:19:08;;;;;;;34.50;11.48;;;;;;;4.59;54.44;102998.25;1853483;77;21159;-45
2023/02/11 08:21:36;;;;;;;27.93;11.90;;;;;;;4.64;54.36;102988.77;1853150;77;21063;-44
2023/02/11 08:24:06;;;;;;;29.75;12.78;;;;;;;4.52;54.48;102979.79;1853512;77;21109;-44
2023/02/11 08:26:36;;;;;;;26.62;11.68;;;;;;;5.47;53.78;102979.09;1853605;77;21055;-47
2023/02/11 08:29:07;;;;;;;29.90;11.57;;;;;;;5.60;53.22;102974.96;1853401;77;21105;-44
2023/02/11 08:31:39;;;;;;;26.90;12.07;;;;;;;5.51;52.75;102977.41;1853412;77;21121;-46
2023/02/11 08:34:10;;;;;;;19.65;7.97;;;;;;;5.32;52.55;102970.98;1853302;77;21050;-44
2023/02/11 08:36:40;;;;;;;17.87;8.90;;;;;;;6.15;50.95;102965.43;1853545;77;21121;-45
2023/02/11 08:39:14;;;;;;;15.53;7.42;;;;;;;8.51;48.90;102969.16;1853477;77;21034;-44
2023/02/11 08:41:44;;;;;;;21.17;7.72;;;;;;;10.73;46.61;102962.28;1853568;77;21102;-44
2023/02/11 08:44:13;;;;;;;17.82;6.62;;;;;;;11.91;45.03;102954.05;1853533;77;21035;-44
2023/02/11 08:46:41;;;;;;;14.10;6.45;;;;;;;11.85;45.50;102950.12;1853332;77;21093;-44
2023/02/11 08:49:10;;;;;;;17.77;8.03;;;;;;;12.81;43.65;102957.91;1853401;77;21051;-44
2023/02/11 08:51:39;;;;;;;15.38;7.62;;;;;;;13.83;42.33;102954.65;1853505;77;21019;-47
2023/02/11 08:54:08;;;;;;;13.68;7.70;;;;;;;12.67;42.82;102951.49;1853393;77;21113;-46
2023/02/11 08:56:38;;;;;;;18.25;6.65;;;;;;;12.88;42.00;102948.14;1853346;76;21082;-44
2023/02/11 08:59:08;;;;;;;12.98;5.75;;;;;;;12.90;41.09;102934.45;1853323;77;21055;-47
2023/02/11 09:01:37;;;;;;;13.35;7.00;;;;;;;13.81;39.46;102932.59;1853392;77;21054;-45
2023/02/11 09:04:06;;;;;;;16.15;6.42;;;;;;;14.71;38.21;102930.44;1853452;77;21059;-46
2023/02/11 09:06:34;;;;;;;12.03;6.12;;;;;;;15.57;37.03;102922.27;1853398;77;21086;-44
2023/02/11 09:09:04;;;;;;;15.03;5.72;;;;;;;16.56;35.86;102918.70;1853477;77;21105;-46
2023/02/11 09:11:35;;;;;;;12.00;5.95;;;;;;;15.94;35.14;102904.07;1853389;77;21027;-47
2023/02/11 09:14:04;;;;;;;13.62;6.58;;;;;;;16.11;35.60;102907.13;1853405;77;21553;-45
2023/02/11 09:16:36;;;;;;;13.80;4.58;;;;;;;16.16;34.78;102902.56;1853398;77;21051;-46
2023/02/11 09:19:05;;;;;;;9.03;4.90;;;;;;;16.05;34.49;102903.78;1853393;77;21107;-44
2023/02/11 09:21:34;;;;;;;11.78;5.28;;;;;;;16.38;33.75;102897.97;1853371;77;21168;-45
2023/02/11 09:24:02;;;;;;;12.13;5.47;;;;;;;16.44;32.62;102889.80;1853282;77;21047;-46
2023/02/11 09:26:34;;;;;;;13.45;5.53;;;;;;;16.32;32.47;102888.81;1853405;77;21011;-46
2023/02/11 09:29:05;;;;;;;11.40;5.22;;;;;;;15.06;32.72;102888.53;1853401;77;21055;-45
2023/02/11 09:31:34;;;;;;;6.92;3.27;;;;;;;15.11;32.72;102880.94;1822629;77;21563;-48
2023/02/11 09:34:05;;;;;;;10.85;4.50;;;;;;;15.20;31.64;102880.71;1853379;77;21059;-47
2023/02/11 09:36:37;;;;;;;8.68;4.08;;;;;;;13.24;32.55;102883.68;1853305;77;21614;-44
2023/02/11 09:39:08;;;;;;;15.65;5.35;;;;;;;12.03;34.18;102886.20;1853353;77;21134;-45
2023/02/11 09:42:09;;;;;;;13.18;6.47;;;;;;;11.05;35.26;102876.91;1853374;77;21489;-45
2023/02/11 09:44:39;;;;;;;19.25;6.95;;;;;;;11.36;35.32;102867.42;1851158;77;21145;-47
2023/02/11 09:47:19;;;;;;;17.80;7.22;;;;;;;12.70;34.19;102865.52;1853267;77;21035;-45
2023/02/11 09:49:54;;;;;;;15.53;6.40;;;;;;;14.06;32.77;102850.91;1853443;77;21050;-47
2023/02/11 09:52:31;;;;;;;11.48;5.50;;;;;;;15.04;32.12;102847.89;1853200;77;21046;-45
2023/02/11 09:55:03;;;;;;;16.02;6.85;;;;;;;15.49;31.21;102847.23;1853564;77;21059;-47
2023/02/11 09:57:37;;;;;;;13.15;6.08;;;;;;;15.97;31.13;102844.19;1848900;76;21157;-47
2023/02/11 10:00:17;;;;;;;16.73;6.67;;;;;;;16.03;30.68;102834.73;1835018;78;21529;-44
2023/02/11 10:03:11;;;;;;;20.75;9.18;;;;;;;16.05;29.48;102832.90;1835090;78;21486;-45
2023/02/11 10:05:45;;;;;;;16.37;7.60;;;;;;;15.81;29.76;102824.70;1835404;78;21036;-45
2023/02/11 10:08:37;;;;;;;11.48;5.78;;;;;;;15.77;29.79;102821.72;1835092;78;21040;-44
2023/02/11 10:11:09;;;;;;;13.08;6.22;;;;;;;16.32;29.74;102826.34;1833795;78;21138;-47
2023/02/11 10:13:52;;;;;;;15.15;5.78;;;;;;;16.37;29.36;102821.30;1835107;78;21125;-47
2023/02/11 10:16:55;;;;;;;12.43;4.53;;;;;;;16.63;29.34;102818.77;1834339;78;21051;-46
2023/02/11 10:19:32;;;;;;;16.35;6.92;;;;;;;16.32;28.92;102822.36;1835275;78;21109;-46
2023/02/11 10:22:06;;;;;;;17.65;6.97;;;;;;;16.42;29.29;102811.87;1835220;78;21502;-44
2023/02/11 10:24:36;;;;;;;14.60;6.72;;;;;;;16.33;29.07;102812.15;1835174;78;21608;-47
2023/02/11 10:27:17;;;;;;;11.53;5.53;;;;;;;16.08;29.19;102806.22;1835189;78;21090;-45
2023/02/11 10:29:51;;;;;;;13.68;5.15;;;;;;;16.17;28.75;102801.95;1835188;78;21142;-48
2023/02/11 10:32:35;;;;;;;11.43;5.33;;;;;;;16.19;28.80;102797.50;1834995;78;21083;-48
2023/02/11 10:35:06;;;;;;;13.68;5.58;;;;;;;16.26;28.89;102794.64;1834956;78;21060;-45
2023/02/11 10:37:36;;;;;;;12.73;5.90;;;;;;;15.85;28.49;102794.08;1834127;78;21565;-45
2023/02/11 10:40:08;;;;;;;13.13;6.15;;;;;;;16.06;28.76;102791.25;1835205;78;21178;-46
2023/02/11 10:42:37;;;;;;;15.60;6.78;;;;;;;16.25;28.44;102784.91;1834652;78;21559;-47
2023/02/11 10:45:13;;;;;;;13.55;6.67;;;;;;;16.15;27.95;102786.52;1835183;78;21174;-45
2023/02/11 10:47:40;;;;;;;14.53;6.72;;;;;;;16.12;28.21;102781.31;1834583;78;21506;-48
2023/02/11 10:50:24;;;;;;;15.78;5.80;;;;;;;16.00;28.19;102783.00;1835169;78;21493;-46
2023/02/11 10:52:52;;;;;;;;;;;;;;;16.16;28.22;102774.98;1837919;78;21035;-45
2023/02/11 10:55:23;;;;;;;15.70;7.05;;;;;;;15.71;28.73;102778.02;1835481;78;20142;-47
2023/02/11 10:57:55;;;;;;;13.15;6.12;;;;;;;15.41;28.80;102772.64;1836832;77;21125;-45
2023/02/11 11:00:26;;;;;;;13.03;5.25;;;;;;;15.13;29.02;102780.94;1852310;77;21151;-49
2023/02/11 11:02:59;;;;;;;14.90;6.25;;;;;;;14.80;28.95;102775.56;1853457;77;21086;-45
2023/02/11 11:05:33;;;;;;;14.53;6.30;;;;;;;14.71;28.94;102763.85;1853259;77;21494;-45
2023/02/11 11:08:08;;;;;;;13.00;7.00;;;;;;;14.87;28.98;102763.90;1853443;77;21062;-45
2023/02/11 11:10:42;;;;;;;15.23;6.85;;;;;;;15.23;28.70;102770.05;1853428;77;21093;-46
2023/02/11 11:13:26;;;;;;;15.45;6.10;;;;;;;15.35;28.39;102764.86;1852518;77;21563;-45
2023/02/11 11:15:55;;;;;;;;;;;;;;;15.16;28.42;102756.52;1854298;77;21082;-44
2023/02/11 11:18:24;;;;;;;15.75;6.67;;;;;;;14.94;28.88;102756.64;1837364;77;20173;-44
2023/02/11 11:21:02;;;;;;;13.95;5.95;;;;;;;14.93;28.97;102751.80;1853289;77;21576;-45
2023/02/11 11:23:31;;;;;;;16.23;6.20;;;;;;;14.79;28.86;102751.27;1853529;77;21022;-46
2023/02/11 11:26:12;;;;;;;15.25;6.50;;;;;;;14.30;28.96;102749.30;1853389;77;21051;-45
2023/02/11 11:29:02;;;;;;;14.07;6.65;;;;;;;14.13;29.05;102753.66;1853417;77;21144;-48
2023/02/11 11:31:39;;;;;;;15.05;7.75;;;;;;;14.25;29.15;102743.22;1852390;77;21156;-46
2023/02/11 11:34:37;;;;;;;15.60;6.80;;;;;;;14.21;29.39;102739.77;1851485;77;21011;-45
2023/02/11 11:37:11;;;;;;;13.22;6.33;;;;;;;13.83;29.56;102742.81;1853191;77;21187;-47
2023/02/11 11:39:41;;;;;;;16.48;7.47;;;;;;;13.66;29.75;102744.45;1846269;77;21718;-45